Time;durP1;ratioP1;P1;durP2;ratioP2;P2;SDS_P1;SDS_P2;PMS_P1;PMS_P2;Temp;Humidity;BMP_temperature;BMP_pressure;BME280_temperature;BME280_humidity;BME280_pressure;Samples;Min_cycle;Max_cycle;Signal;HPM_P1;HPM_P2
2021/01/02 00:02:43;;;;;;;19.77;10.82;;;2.10;79.10;;;1.16;63.51;94254.63;5055150;28;20450;-81
2021/01/02 00:05:15;;;;;;;19.63;10.35;;;2.10;79.20;;;1.17;63.13;94252.84;5068740;28;20219;-81
2021/01/02 00:07:57;;;;;;;19.70;10.35;;;2.10;79.10;;;1.20;63.28;94258.53;5045598;28;20191;-81
2021/01/02 00:10:52;;;;;;;21.80;11.18;;;2.10;79.10;;;1.19;63.20;94254.31;5051624;28;20244;-81
2021/01/02 00:13:40;;;;;;;21.25;10.38;;;2.10;79.10;;;1.22;63.42;94254.03;5050406;28;20678;-81
2021/01/02 00:16:21;;;;;;;19.35;9.80;;;2.20;79.10;;;1.24;63.27;94257.25;5056273;28;20265;-81
2021/01/02 00:19:23;;;;;;;17.83;9.57;;;2.20;79.30;;;1.24;63.25;94261.63;5071111;28;20199;-81
2021/01/02 00:21:58;;;;;;;19.88;9.65;;;2.20;79.40;;;1.27;63.70;94251.81;5066610;28;20199;-81
2021/01/02 00:24:37;;;;;;;22.30;10.52;;;2.20;79.20;;;1.27;63.35;94251.00;5070906;28;20218;-81
2021/01/02 00:27:18;;;;;;;21.48;11.15;;;2.20;79.20;;;1.29;63.62;94254.22;5069345;28;20188;-81
2021/01/02 00:30:01;;;;;;;19.90;10.73;;;2.20;79.10;;;1.31;63.33;94260.06;5053708;28;20813;-81
2021/01/02 00:32:31;;;;;;;20.02;10.63;;;2.20;79.40;;;1.34;63.50;94257.16;5053023;28;20651;-81
2021/01/02 00:35:18;;;;;;;23.02;11.27;;;2.30;79.10;;;1.35;63.48;94263.94;5053657;28;20223;-81
2021/01/02 00:37:50;;;;;;;20.77;10.82;;;2.30;79.40;;;1.38;63.42;94273.16;5069209;28;20203;-81
2021/01/02 00:40:22;;;;;;;19.80;10.30;;;2.30;79.10;;;1.39;63.60;94283.38;5038057;28;20636;-81
2021/01/02 00:42:51;;;;;;;21.45;10.63;;;2.30;79.30;;;1.39;63.31;94280.78;5047464;28;20716;-80
2021/01/02 00:45:23;;;;;;;20.50;11.43;;;2.30;79.10;;;1.40;63.47;94284.19;5053763;28;20222;-81
2021/01/02 00:47:52;;;;;;;23.70;11.52;;;2.30;79.20;;;1.41;63.64;94288.38;5027523;28;20245;-80
2021/01/02 00:50:26;;;;;;;22.73;11.23;;;2.30;79.10;;;1.41;63.34;94284.03;5053234;28;20234;-81
2021/01/02 00:53:04;;;;;;;22.25;11.00;;;2.40;79.20;;;1.39;63.49;94285.97;5054952;28;20196;-81
2021/01/02 00:55:54;;;;;;;19.23;10.73;;;2.40;79.20;;;1.43;63.33;94287.28;5069238;28;20242;-81
2021/01/02 00:59:06;;;;;;;25.55;11.43;;;2.40;79.30;;;1.44;63.35;94290.66;5064722;28;20197;-81
2021/01/02 01:01:45;;;;;;;21.80;10.48;;;2.40;79.40;;;1.44;63.68;94286.31;5051879;28;20277;-81
2021/01/02 01:04:42;;;;;;;24.05;11.68;;;2.40;79.20;;;1.47;63.66;94271.47;5019320;28;20200;-81
2021/01/02 01:07:16;;;;;;;22.58;10.75;;;2.40;79.20;;;1.49;63.51;94275.53;5066649;28;20204;-81
2021/01/02 01:09:50;;;;;;;23.02;10.98;;;2.40;79.20;;;1.50;63.27;94266.81;5027469;28;20215;-81
2021/01/02 01:12:18;;;;;;;24.75;12.25;;;2.40;79.20;;;1.51;63.36;94267.63;5054221;28;20196;-80
2021/01/02 01:14:47;;;;;;;24.52;11.88;;;2.50;79.20;;;1.49;63.34;94260.03;5042207;28;20272;-81
2021/01/02 01:17:24;;;;;;;24.13;12.57;;;2.50;79.20;;;1.53;63.56;94270.88;5062176;28;20196;-81
2021/01/02 01:19:57;;;;;;;21.10;10.40;;;2.50;79.30;;;1.55;63.40;94284.44;5048190;28;20224;-81
2021/01/02 01:22:30;;;;;;;22.23;10.75;;;2.50;79.20;;;1.54;63.76;94288.81;5055995;28;20185;-81
2021/01/02 01:25:06;;;;;;;22.05;11.20;;;2.50;79.30;;;1.51;63.19;94277.97;5054472;28;20219;-81
2021/01/02 01:28:09;;;;;;;27.35;12.00;;;2.50;79.30;;;1.57;63.60;94298.81;5037733;28;20204;-81
2021/01/02 01:30:40;;;;;;;21.48;10.27;;;2.50;79.60;;;1.57;63.46;94288.47;4940695;28;20265;-81
2021/01/02 01:33:08;;;;;;;22.00;10.27;;;2.50;79.20;;;1.60;63.43;94283.03;5042820;28;20196;-80
2021/01/02 01:35:43;;;;;;;23.85;11.10;;;2.50;79.20;;;1.63;63.18;94278.53;5044547;28;20223;-81
2021/01/02 01:38:18;;;;;;;21.08;10.43;;;2.50;79.40;;;1.63;63.41;94278.53;5071343;28;20275;-81
2021/01/02 01:40:56;;;;;;;24.77;11.60;;;2.50;79.20;;;1.61;63.51;94278.66;5074576;28;20265;-81
2021/01/02 01:44:05;;;;;;;24.50;10.68;;;2.60;79.30;;;1.63;63.34;94276.72;5073841;28;20266;-80
2021/01/02 01:46:35;;;;;;;22.10;10.77;;;2.60;79.50;;;1.63;63.55;94283.69;5071280;28;20243;-79
2021/01/02 01:49:09;;;;;;;24.17;11.68;;;2.60;79.30;;;1.64;63.24;94278.38;5050500;28;20241;-81
2021/01/02 01:51:53;;;;;;;21.33;10.88;;;2.60;79.30;;;1.65;63.35;94281.75;5072127;28;20202;-81
2021/01/02 01:54:37;;;;;;;22.17;11.38;;;2.60;79.40;;;1.65;63.42;94282.56;5071224;28;20724;-80
2021/01/02 01:57:05;;;;;;;24.45;11.57;;;2.60;79.30;;;1.66;63.25;94294.53;5056742;28;20195;-81
2021/01/02 01:59:57;;;;;;;23.92;11.00;;;2.60;79.30;;;1.65;63.23;94295.50;5049188;28;20219;-81
2021/01/02 02:02:44;;;;;;;23.83;10.68;;;2.60;79.50;;;1.66;63.48;94291.13;5074102;28;20187;-82
2021/01/02 02:05:16;;;;;;;21.92;10.60;;;2.60;79.60;;;1.66;63.23;94297.13;5070135;28;20207;-81
2021/01/02 02:08:04;;;;;;;21.17;10.32;;;2.60;79.30;;;1.68;63.39;94296.97;5055113;28;20187;-80
2021/01/02 02:10:35;;;;;;;22.13;10.30;;;2.60;79.60;;;1.65;63.61;94286.91;5039050;28;20239;-81
2021/01/02 02:13:32;;;;;;;23.40;10.93;;;2.60;79.30;;;1.65;63.33;94281.75;5056651;28;20198;-81
2021/01/02 02:16:00;;;;;;;21.67;10.60;;;2.60;79.60;;;1.69;63.80;94285.66;5054370;28;20264;-81
2021/01/02 02:18:29;;;;;;;25.67;11.18;;;2.70;79.40;;;1.63;63.53;94276.72;5053146;28;20230;-81
2021/01/02 02:20:59;;;;;;;24.30;10.88;;;2.60;79.40;;;1.68;63.36;94278.88;5053970;28;20425;-80
2021/01/02 02:23:41;;;;;;;20.05;10.48;;;2.60;79.30;;;1.70;63.35;94282.91;5056727;28;20223;-81
2021/01/02 02:26:33;;;;;;;22.55;10.85;;;2.60;79.50;;;1.70;63.62;94285.50;5052539;28;20717;-81
2021/01/02 02:29:11;;;;;;;20.55;10.48;;;2.70;79.40;;;1.69;63.41;94281.28;5060757;28;20204;-81
2021/01/02 02:31:47;;;;;;;20.73;10.32;;;2.70;79.50;;;1.71;63.36;94286.31;5053023;28;20188;-81
2021/01/02 02:34:17;;;;;;;22.05;11.23;;;2.70;79.50;;;1.73;63.36;94274.03;5087455;28;20215;-81
2021/01/02 02:36:44;;;;;;;22.30;11.18;;;2.70;79.40;;;1.69;63.64;94265.78;5055415;28;20196;-81
2021/01/02 02:39:13;;;;;;;22.23;10.90;;;2.60;79.30;;;1.75;63.58;94265.16;5046199;28;20200;-81
2021/01/02 02:41:51;;;;;;;26.42;10.95;;;2.70;79.40;;;1.76;63.54;94273.75;5055211;28;20597;-81
2021/01/02 02:44:28;;;;;;;23.65;10.68;;;2.60;79.60;;;1.76;63.46;94273.75;5068969;28;20220;-81
2021/01/02 02:46:58;;;;;;;25.27;11.38;;;2.70;79.60;;;1.77;63.38;94272.78;5019821;28;20199;-81
2021/01/02 02:49:30;;;;;;;22.48;11.30;;;2.70;79.40;;;1.71;63.59;94258.69;5038349;28;20219;-81
2021/01/02 02:52:21;;;;;;;23.38;11.23;;;2.70;79.40;;;1.75;63.28;94261.78;5072939;28;20199;-81
2021/01/02 02:54:49;;;;;;;23.20;11.20;;;2.70;79.40;;;1.74;63.37;94260.16;5065884;28;20219;-81
2021/01/02 02:57:17;;;;;;;24.92;11.10;;;2.70;79.40;;;1.74;63.52;94265.31;5047743;28;20278;-81
2021/01/02 02:59:45;;;;;;;21.13;10.85;;;2.70;79.40;;;1.75;63.68;94260.00;5043379;28;20224;-80
2021/01/02 03:02:14;;;;;;;21.63;10.75;;;2.70;79.40;;;1.75;63.56;94260.00;5064474;28;20192;-82
2021/01/02 03:04:42;;;;;;;20.85;10.35;;;2.70;79.40;;;1.77;63.62;94265.03;5047550;28;21139;-81
2021/01/02 03:07:09;;;;;;;20.67;10.10;;;2.80;79.40;;;1.76;63.49;94266.78;5051676;28;20203;-81
2021/01/02 03:09:36;;;;;;;23.23;10.88;;;2.70;79.40;;;1.76;64.03;94264.22;5051519;28;20219;-81
2021/01/02 03:12:04;;;;;;;19.88;10.05;;;2.70;79.40;;;1.76;63.68;94264.22;5049786;28;20739;-81
2021/01/02 03:14:30;;;;;;;22.55;10.95;;;2.70;79.40;;;1.76;63.41;94268.59;5088832;28;20247;-80
2021/01/02 03:16:59;;;;;;;22.25;10.52;;;2.70;79.40;;;1.78;63.53;94274.38;5048803;28;20199;-81
2021/01/02 03:19:30;;;;;;;24.17;10.55;;;2.70;79.40;;;1.80;63.90;94280.22;5051894;28;20583;-81
2021/01/02 03:21:57;;;;;;;21.15;10.00;;;2.70;79.40;;;1.82;63.30;94272.31;5047078;28;20227;-80
2021/01/02 03:24:26;;;;;;;21.13;10.63;;;2.70;79.40;;;1.81;63.47;94276.69;5063089;28;20270;-80
2021/01/02 03:26:52;;;;;;;22.50;11.13;;;2.80;79.40;;;1.83;63.58;94271.34;5044501;28;20714;-80
2021/01/02 03:29:19;;;;;;;22.90;10.90;;;2.70;79.40;;;1.83;63.60;94254.06;5038619;28;20223;-81
2021/01/02 03:31:46;;;;;;;20.75;9.27;;;2.70;79.40;;;1.83;63.27;94253.25;5046175;28;20613;-80
2021/01/02 03:34:13;;;;;;;20.73;10.18;;;2.80;79.50;;;1.81;63.36;94250.81;5046104;28;20219;-81
2021/01/02 03:36:40;;;;;;;21.20;10.95;;;2.80;79.50;;;1.84;63.59;94260.03;5032811;28;20204;-79
2021/01/02 03:39:07;;;;;;;21.73;10.43;;;2.80;79.50;;;1.84;63.51;94249.69;5041177;28;20287;-80
2021/01/02 03:41:34;;;;;;;20.65;10.55;;;2.80;79.40;;;1.88;63.76;94258.75;5053945;28;21225;-80
2021/01/02 03:44:01;;;;;;;21.30;10.93;;;2.80;79.50;;;1.88;63.48;94267.34;5049629;28;20200;-80
2021/01/02 03:46:29;;;;;;;24.92;11.27;;;2.80;79.50;;;1.86;63.64;94263.28;5048254;28;20281;-80
2021/01/02 03:48:57;;;;;;;24.42;10.88;;;2.80;80.30;;;1.89;63.61;94270.72;5057968;28;20192;-79
2021/01/02 03:51:26;;;;;;;23.33;10.52;;;2.80;79.40;;;1.88;63.72;94269.09;5056004;28;20245;-80
2021/01/02 03:53:53;;;;;;;25.92;11.05;;;2.80;79.50;;;1.91;63.74;94267.03;5046756;28;20302;-80
2021/01/02 03:56:20;;;;;;;25.42;10.95;;;2.90;79.50;;;1.93;63.78;94264.31;5050944;28;20552;-81
2021/01/02 03:58:50;;;;;;;23.45;10.85;;;2.80;79.50;;;1.94;63.63;94267.69;5046409;28;20281;-80
2021/01/02 04:01:17;;;;;;;27.55;11.93;;;2.80;79.60;;;1.95;63.93;94266.72;5042111;28;20325;-79
2021/01/02 04:03:44;;;;;;;27.90;11.73;;;2.80;79.60;;;1.97;63.72;94268.19;5058270;28;20253;-80
2021/01/02 04:06:12;;;;;;;26.70;11.60;;;2.90;79.60;;;1.97;63.75;94262.22;5052203;28;20219;-80
2021/01/02 04:08:39;;;;;;;24.65;11.57;;;2.90;79.60;;;1.98;63.36;94279.34;5052159;28;20222;-81
2021/01/02 04:11:05;;;;;;;26.75;11.25;;;2.90;79.50;;;2.00;63.67;94280.00;5058292;28;20223;-81
2021/01/02 04:13:32;;;;;;;25.13;10.45;;;2.90;79.50;;;1.99;63.79;94284.38;5050817;28;20283;-81
2021/01/02 04:15:59;;;;;;;27.38;11.05;;;2.90;79.60;;;1.96;63.82;94278.69;5059081;28;20227;-79
2021/01/02 04:18:26;;;;;;;24.83;11.32;;;2.90;79.50;;;2.01;63.76;94266.09;5028151;28;20672;-80
2021/01/02 04:20:53;;;;;;;25.70;10.63;;;2.90;79.60;;;2.02;63.87;94265.16;5058186;28;20444;-79
2021/01/02 04:23:20;;;;;;;29.45;11.30;;;2.90;79.70;;;2.02;63.76;94270.31;5040727;28;20291;-81
2021/01/02 04:25:47;;;;;;;28.08;11.70;;;2.90;79.60;;;2.03;63.66;94266.78;5047509;28;20342;-80
2021/01/02 04:28:15;;;;;;;27.98;11.77;;;2.90;79.70;;;2.03;63.43;94264.97;5043073;28;20217;-81
2021/01/02 04:30:42;;;;;;;27.48;11.43;;;2.90;79.60;;;2.03;63.57;94272.75;5059644;28;20219;-81
2021/01/02 04:33:10;;;;;;;23.25;10.18;;;3.00;79.60;;;2.02;63.67;94270.31;5060033;28;20248;-81
2021/01/02 04:35:37;;;;;;;27.30;11.15;;;2.90;79.50;;;2.02;63.81;94263.34;5059243;28;20228;-80
2021/01/02 04:38:04;;;;;;;25.70;9.73;;;2.90;79.60;;;2.00;63.71;94262.72;5053759;28;20573;-80
2021/01/02 04:40:31;;;;;;;23.13;11.00;;;3.00;79.70;;;2.05;63.81;94262.22;5048471;28;20403;-80
2021/01/02 04:42:58;;;;;;;24.52;10.63;;;2.90;79.70;;;2.06;63.98;94258.69;5039393;28;20201;-81
2021/01/02 04:45:27;;;;;;;22.65;10.90;;;3.00;79.70;;;2.07;63.73;94255.94;5046037;28;20339;-80
2021/01/02 04:47:54;;;;;;;23.88;10.95;;;3.00;79.60;;;2.04;63.34;94263.22;5044703;28;20327;-80
2021/01/02 04:50:24;;;;;;;20.80;10.02;;;3.00;79.60;;;2.05;63.50;94267.41;5045318;28;20681;-80
2021/01/02 04:52:59;;;;;;;22.85;10.50;;;3.00;79.60;;;2.04;63.78;94273.56;5064537;28;20301;-80
2021/01/02 04:55:31;;;;;;;21.35;9.85;;;3.00;79.60;;;2.04;63.80;94270.97;5036086;28;20218;-80
2021/01/02 04:57:59;;;;;;;20.25;10.35;;;3.00;79.60;;;2.03;63.62;94269.34;5034975;28;20294;-81
2021/01/02 05:00:27;;;;;;;19.58;9.48;;;3.00;79.60;;;2.01;63.76;94277.25;5064097;28;20298;-81
2021/01/02 05:02:54;;;;;;;19.33;9.65;;;3.00;79.60;;;1.99;63.64;94273.19;5043585;28;20200;-81
2021/01/02 05:05:21;;;;;;;18.98;9.90;;;3.00;79.60;;;2.00;63.70;94275.66;5038100;28;20212;-81
2021/01/02 05:07:48;;;;;;;20.08;9.73;;;2.90;79.50;;;2.04;63.81;94270.97;5038211;28;20238;-81
2021/01/02 05:10:15;;;;;;;20.17;9.68;;;3.00;79.60;;;2.04;63.60;94264.03;5037205;28;20215;-80
2021/01/02 05:12:43;;;;;;;24.27;10.90;;;3.00;79.60;;;2.05;63.80;94263.06;5048829;28;20192;-80
2021/01/02 05:15:13;;;;;;;20.33;9.82;;;3.00;79.60;;;2.06;63.81;94266.44;5050532;28;20235;-81
2021/01/02 05:17:41;;;;;;;19.75;9.93;;;3.00;79.60;;;2.07;63.63;94274.03;5067309;28;20223;-81
2021/01/02 05:20:14;;;;;;;21.48;10.10;;;3.00;79.60;;;2.04;63.79;94274.38;5055419;28;20557;-81
2021/01/02 05:22:42;;;;;;;22.48;11.05;;;3.00;79.60;;;2.02;63.70;94275.50;5036993;28;20223;-78
2021/01/02 05:25:14;;;;;;;25.50;10.80;;;3.10;79.60;;;2.08;63.66;94280.03;5054955;28;20234;-82
2021/01/02 05:27:49;;;;;;;22.90;10.30;;;3.00;79.70;;;2.06;63.76;94284.56;5069717;28;20611;-80
2021/01/02 05:30:27;;;;;;;26.05;10.93;;;3.00;79.60;;;2.06;63.47;94284.56;5034134;28;20220;-81
2021/01/02 05:33:10;;;;;;;18.73;9.90;;;3.00;79.70;;;2.06;63.41;94297.47;5068071;28;20191;-80
2021/01/02 05:35:46;;;;;;;21.10;9.50;;;3.00;79.70;;;2.03;63.82;94290.06;5036099;28;20629;-81
2021/01/02 05:38:25;;;;;;;18.95;9.60;;;3.00;79.60;;;2.00;63.64;94301.50;5059129;28;20199;-80
2021/01/02 05:40:56;;;;;;;22.25;9.93;;;3.00;79.60;;;2.00;63.77;94296.34;5051923;28;20342;-81
2021/01/02 05:43:25;;;;;;;22.52;9.68;;;3.00;79.60;;;2.01;63.87;94297.94;5067379;28;20184;-81
2021/01/02 05:45:52;;;;;;;19.45;10.05;;;3.00;79.60;;;2.01;63.86;94297.94;5032122;28;20224;-80
2021/01/02 05:48:25;;;;;;;22.58;9.73;;;3.00;79.60;;;2.03;63.73;94308.16;5036334;28;20202;-82
2021/01/02 05:51:00;;;;;;;20.92;9.02;;;3.00;79.60;;;2.00;63.70;94322.22;5059642;28;20220;-81
2021/01/02 05:53:34;;;;;;;24.77;10.57;;;3.00;79.70;;;2.03;63.94;94316.72;5068115;28;20295;-80
2021/01/02 05:56:09;;;;;;;20.20;10.52;;;3.00;79.60;;;2.05;63.60;94295.84;5043914;28;20219;-81
2021/01/02 05:58:46;;;;;;;20.83;9.95;;;3.00;79.70;;;1.98;63.78;94282.75;5061641;28;20206;-81
2021/01/02 06:01:19;;;;;;;25.63;10.45;;;3.00;79.60;;;2.05;63.93;94309.63;5046708;28;20251;-80
2021/01/02 06:03:50;;;;;;;18.77;9.57;;;3.00;79.70;;;2.05;64.07;94306.19;5050427;28;20228;-81
2021/01/02 06:06:19;;;;;;;20.85;9.80;;;3.00;79.60;;;2.04;63.77;94312.38;5044973;28;20587;-82
2021/01/02 06:08:51;;;;;;;21.65;10.88;;;3.00;79.60;;;2.04;63.76;94312.38;5050002;28;20295;-81
2021/01/02 06:11:23;;;;;;;22.38;10.00;;;3.00;79.60;;;2.03;63.30;94324.47;5055151;28;20192;-81
2021/01/02 06:13:53;;;;;;;24.90;9.80;;;3.00;79.60;;;2.03;63.90;94326.25;5051571;28;20200;-81
2021/01/02 06:16:20;;;;;;;18.67;9.15;;;3.00;79.60;;;2.02;63.86;94329.81;5038503;28;20200;-81
2021/01/02 06:18:48;;;;;;;21.25;9.95;;;3.00;79.60;;;2.02;63.71;94325.44;5065063;28;20744;-81
2021/01/02 06:21:19;;;;;;;18.70;8.60;;;3.00;79.60;;;2.02;63.46;94335.78;5034132;28;20709;-80
2021/01/02 06:23:48;;;;;;;21.40;8.95;;;3.00;80.40;;;1.99;63.73;94325.75;5071275;28;20206;-81
2021/01/02 06:26:16;;;;;;;19.17;8.88;;;3.00;79.60;;;2.04;63.70;94333.84;5071115;28;20743;-81
2021/01/02 06:28:45;;;;;;;18.55;9.50;;;2.90;79.60;;;2.06;63.98;94338.88;5050059;28;20220;-80
2021/01/02 06:31:15;;;;;;;23.05;9.63;;;2.90;79.60;;;2.06;63.80;94347.47;5034374;28;20208;-81
2021/01/02 06:33:50;;;;;;;24.60;10.55;;;3.00;79.80;;;2.08;63.69;94347.28;5034362;28;20239;-80
2021/01/02 06:36:35;;;;;;;21.20;9.90;;;3.00;79.90;;;2.09;63.88;94348.94;5054393;28;20708;-80
2021/01/02 06:39:28;;;;;;;23.17;10.02;;;3.00;79.90;;;2.07;63.74;94348.25;5064158;28;20200;-81
2021/01/02 06:41:57;;;;;;;22.88;9.68;;;3.00;80.00;;;2.07;63.89;94340.50;5068873;28;20215;-81
2021/01/02 06:44:44;;;;;;;21.52;10.27;;;3.00;79.60;;;2.05;63.81;94332.06;5057166;28;20223;-80
2021/01/02 06:47:31;;;;;;;23.05;10.60;;;3.00;79.70;;;2.03;63.60;94340.00;5065389;28;20188;-79
2021/01/02 06:49:58;;;;;;;22.35;9.77;;;3.00;79.60;;;2.02;63.73;94333.19;5055964;28;20246;-81
2021/01/02 06:52:29;;;;;;;21.92;10.35;;;3.00;79.60;;;2.02;63.88;94346.13;5052354;28;20295;-81
2021/01/02 06:55:20;;;;;;;19.00;9.20;;;3.00;80.40;;;2.01;63.98;94343.69;5069321;28;20212;-81
2021/01/02 06:57:48;;;;;;;23.20;10.25;;;3.00;79.90;;;2.03;63.82;94349.53;5071025;28;20187;-79
2021/01/02 07:00:25;;;;;;;23.27;10.10;;;3.00;79.60;;;2.03;63.76;94349.53;5042495;28;20215;-81
2021/01/02 07:02:53;;;;;;;21.10;9.93;;;2.90;79.70;;;2.06;63.98;94351.81;5072912;28;20245;-81
2021/01/02 07:05:47;;;;;;;19.67;10.30;;;3.00;79.70;;;2.05;63.93;94345.00;5054899;28;20689;-81
2021/01/02 07:08:43;;;;;;;22.10;10.02;;;3.00;80.00;;;2.04;63.67;94338.22;5053555;28;20564;-80
2021/01/02 07:11:37;;;;;;;22.55;9.32;;;3.00;80.00;;;2.07;64.06;94341.28;5038543;28;20770;-81
2021/01/02 07:14:10;;;;;;;23.70;10.70;;;3.00;79.90;;;2.04;63.94;94333.84;5052949;28;20192;-80
2021/01/02 07:16:38;;;;;;;26.30;11.48;;;3.00;79.70;;;2.04;63.57;94335.66;5066513;28;20693;-81
2021/01/02 07:19:05;;;;;;;21.20;10.10;;;3.00;79.60;;;2.03;63.98;94326.25;5060996;28;20550;-80
2021/01/02 07:21:37;;;;;;;21.80;10.65;;;3.00;79.60;;;2.05;63.54;94335.47;5048447;28;20219;-81
2021/01/02 07:24:27;;;;;;;25.45;10.57;;;3.00;79.70;;;2.05;63.81;94348.41;5060175;28;20303;-81
2021/01/02 07:27:02;;;;;;;24.77;11.10;;;3.00;79.90;;;2.06;63.95;94350.03;5044941;28;20294;-80
2021/01/02 07:29:34;;;;;;;23.58;10.68;;;3.00;79.90;;;2.07;63.73;94349.06;5058163;28;20966;-80
2021/01/02 07:32:12;;;;;;;23.75;10.68;;;3.00;79.80;;;2.12;63.96;94356.38;5046111;28;20206;-80
2021/01/02 07:34:46;;;;;;;17.98;9.98;;;3.00;79.80;;;2.15;63.59;94350.06;5076716;28;20218;-81
2021/01/02 07:37:17;;;;;;;20.30;9.25;;;3.00;79.90;;;2.13;63.87;94339.09;5046204;28;20200;-80
2021/01/02 07:39:59;;;;;;;18.85;9.40;;;3.00;80.60;;;2.19;63.84;94356.56;5039601;28;20227;-79
2021/01/02 07:42:30;;;;;;;20.45;9.45;;;3.10;80.00;;;2.19;63.88;94366.91;5060089;28;20214;-79
2021/01/02 07:45:09;;;;;;;23.52;10.52;;;3.10;79.80;;;2.20;63.73;94369.34;5039668;28;20281;-80
2021/01/02 07:47:37;;;;;;;20.88;10.48;;;3.10;79.90;;;2.22;63.81;94364.00;5030339;28;20291;-80
2021/01/02 07:50:10;;;;;;;29.63;14.60;;;3.10;79.80;;;2.24;64.04;94352.53;5055006;28;20211;-80
2021/01/02 07:52:59;;;;;;;31.00;15.45;;;3.10;79.70;;;2.23;63.63;94356.13;5042779;28;20261;-80
2021/01/02 07:55:31;;;;;;;30.55;15.43;;;3.10;80.00;;;2.23;63.72;94356.13;5030652;28;20223;-80
2021/01/02 07:58:00;;;;;;;35.90;16.70;;;3.20;79.80;;;2.28;63.77;94358.22;5045703;28;20195;-80
2021/01/02 08:00:28;;;;;;;38.95;18.13;;;3.20;79.80;;;2.29;63.50;94353.88;5019344;28;20673;-81
2021/01/02 08:03:04;;;;;;;29.50;13.90;;;3.20;79.90;;;2.30;63.92;94358.09;5031621;28;20298;-79
2021/01/02 08:05:31;;;;;;;29.50;12.52;;;3.20;80.00;;;2.35;64.14;94366.19;5055190;28;20310;-81
2021/01/02 08:08:00;;;;;;;25.33;11.02;;;3.20;79.90;;;2.37;63.88;94372.03;5029705;28;20199;-81
2021/01/02 08:10:30;;;;;;;20.55;10.63;;;3.20;80.10;;;2.35;63.85;94366.19;5054084;28;20212;-80
2021/01/02 08:13:02;;;;;;;25.58;11.40;;;3.20;80.00;;;2.37;64.10;94370.25;5055814;28;20202;-79
2021/01/02 08:15:36;;;;;;;25.15;10.93;;;3.30;80.00;;;2.41;63.85;94357.81;5057921;28;20227;-79
2021/01/02 08:18:06;;;;;;;23.30;11.77;;;3.30;80.00;;;2.45;63.82;94360.91;5038654;28;20206;-80
2021/01/02 08:20:33;;;;;;;24.75;11.05;;;3.30;80.00;;;2.46;63.83;94363.31;5038486;28;20246;-80
2021/01/02 08:23:09;;;;;;;22.75;10.45;;;3.30;80.00;;;2.46;64.06;94360.72;5043155;28;20219;-79
2021/01/02 08:25:38;;;;;;;21.23;10.05;;;3.30;80.10;;;2.53;63.72;94360.94;5038177;28;20212;-80
2021/01/02 08:28:05;;;;;;;23.20;10.07;;;3.30;80.00;;;2.52;63.94;94354.13;5041752;28;20892;-81
2021/01/02 08:30:33;;;;;;;20.52;9.35;;;3.40;79.90;;;2.52;63.82;94359.31;5028355;28;20220;-79
2021/01/02 08:33:00;;;;;;;23.33;10.63;;;3.40;79.90;;;2.56;63.74;94358.03;5056407;28;20290;-80
2021/01/02 08:35:38;;;;;;;29.10;10.82;;;3.40;80.00;;;2.56;63.99;94366.63;5053803;28;20227;-80
2021/01/02 08:38:10;;;;;;;21.70;10.30;;;3.40;80.10;;;2.59;64.02;94367.25;5044359;28;20199;-80
2021/01/02 08:40:42;;;;;;;21.58;10.25;;;3.50;80.00;;;2.61;63.72;94365.31;5055814;28;20245;-80
2021/01/02 08:43:24;;;;;;;25.33;10.43;;;3.50;80.00;;;2.60;63.97;94351.59;5073614;28;20223;-81
2021/01/02 08:45:59;;;;;;;20.63;9.38;;;3.50;80.10;;;2.60;63.97;94348.16;5029629;28;20269;-79
2021/01/02 08:48:28;;;;;;;25.73;10.48;;;3.50;80.00;;;2.66;64.01;94373.44;5044786;28;20307;-80
2021/01/02 08:50:54;;;;;;;25.05;10.85;;;3.50;80.00;;;2.67;63.79;94388.00;5040224;28;20216;-79
2021/01/02 08:53:36;;;;;;;24.23;10.68;;;3.50;80.00;;;2.69;63.75;94384.28;5022586;28;20229;-80
2021/01/02 08:56:26;;;;;;;21.45;10.13;;;3.50;80.10;;;2.70;63.56;94392.88;5024478;28;20258;-80
2021/01/02 08:58:54;;;;;;;23.55;9.98;;;3.50;80.20;;;2.74;63.78;94381.22;5047789;28;20211;-80
2021/01/02 09:01:21;;;;;;;27.08;10.70;;;3.60;80.20;;;2.76;64.15;94379.31;5058027;28;20295;-79
2021/01/02 09:03:49;;;;;;;23.70;10.82;;;3.60;80.20;;;2.78;64.24;94382.53;5066235;28;20258;-80
2021/01/02 09:06:21;;;;;;;23.65;10.45;;;3.60;80.10;;;2.81;63.86;94404.75;5037059;28;20211;-81
2021/01/02 09:09:06;;;;;;;25.85;10.98;;;3.60;80.10;;;2.82;63.70;94399.41;5049232;28;20192;-80
2021/01/02 09:11:50;;;;;;;26.02;11.23;;;3.70;80.30;;;2.86;63.94;94411.06;5059432;28;20693;-81
2021/01/02 09:14:18;;;;;;;29.08;11.13;;;3.70;80.40;;;2.90;64.15;94408.16;5061591;28;20896;-81
2021/01/02 09:17:04;;;;;;;25.63;11.85;;;3.70;80.20;;;2.91;63.94;94394.25;5068702;28;20206;-80
2021/01/02 09:19:32;;;;;;;25.92;11.45;;;3.70;80.30;;;2.95;63.99;94406.69;5040109;28;20216;-81
2021/01/02 09:22:00;;;;;;;30.10;12.88;;;3.70;80.10;;;2.98;63.78;94397.81;5053080;28;20569;-80
2021/01/02 09:24:29;;;;;;;28.88;11.40;;;3.80;80.30;;;3.00;63.90;94403.66;5044355;28;20250;-80
2021/01/02 09:26:56;;;;;;;24.30;11.30;;;3.80;80.20;;;3.01;64.20;94406.06;5063317;28;20204;-80
2021/01/02 09:29:23;;;;;;;26.67;10.43;;;3.80;80.30;;;3.06;64.14;94408.19;5048630;28;20227;-81
2021/01/02 09:31:49;;;;;;;21.02;10.85;;;3.80;80.30;;;3.09;64.27;94402.72;5024947;28;20269;-82
2021/01/02 09:34:16;;;;;;;29.77;13.95;;;3.80;80.30;;;3.12;63.84;94393.81;5063818;28;20220;-80
2021/01/02 09:36:43;;;;;;;27.60;11.55;;;3.90;80.30;;;3.15;63.76;94390.88;5053849;28;20208;-81
2021/01/02 09:39:10;;;;;;;36.95;13.30;;;3.90;80.10;;;3.16;64.09;94393.34;5051256;28;20597;-81
2021/01/02 09:41:36;;;;;;;25.85;11.45;;;3.90;80.10;;;3.16;63.81;94398.53;5063696;28;20557;-81
2021/01/02 09:44:03;;;;;;;27.33;10.80;;;4.00;80.20;;;3.14;64.03;94378.94;5065292;28;20291;-81
2021/01/02 09:46:51;;;;;;;23.13;9.90;;;4.00;80.20;;;3.19;63.97;94390.41;5042672;28;20346;-81
2021/01/02 09:49:19;;;;;;;23.88;12.45;;;4.00;80.20;;;3.22;63.87;94385.91;5054085;28;20724;-81
2021/01/02 09:51:45;;;;;;;31.50;12.65;;;4.00;80.20;;;3.25;64.01;94394.16;5058133;28;20223;-81
2021/01/02 09:54:12;;;;;;;38.05;13.00;;;4.00;80.20;;;3.27;64.07;94397.41;5070504;28;20188;-81
2021/01/02 09:56:45;;;;;;;28.88;12.85;;;4.10;80.20;;;3.30;63.54;94407.44;5046088;28;20196;-81
2021/01/02 09:59:15;;;;;;;25.52;11.80;;;4.10;80.20;;;3.29;63.86;94398.03;5052206;28;20262;-81
2021/01/02 10:01:41;;;;;;;31.23;12.57;;;4.10;80.20;;;3.30;64.02;94404.06;5048697;28;20614;-81
2021/01/02 10:04:08;;;;;;;32.17;13.23;;;4.10;80.20;;;3.29;64.12;94385.09;5053532;28;20291;-81
2021/01/02 10:06:35;;;;;;;26.45;11.93;;;4.10;80.20;;;3.30;64.08;94388.50;5066043;28;20658;-82
2021/01/02 10:09:02;;;;;;;137.98;52.03;;;4.10;80.20;;;3.26;63.76;94395.78;5041076;28;20235;-80
2021/01/02 10:11:29;;;;;;;71.05;31.80;;;4.10;80.20;;;3.30;63.71;94409.25;5068477;28;20677;-81
2021/01/02 10:13:56;;;;;;;47.33;22.10;;;4.10;80.20;;;3.31;63.91;94397.91;5069652;28;20216;-81
2021/01/02 10:16:23;;;;;;;37.28;16.90;;;4.10;80.20;;;3.31;63.92;94392.72;5056089;28;20598;-80
2021/01/02 10:18:50;;;;;;;29.98;14.95;;;4.10;80.20;;;3.32;64.02;94392.56;5049832;28;20203;-80
2021/01/02 10:21:16;;;;;;;23.73;12.52;;;4.20;80.30;;;3.35;64.19;94384.44;5039260;28;20227;-80
2021/01/02 10:23:43;;;;;;;25.10;12.73;;;4.20;80.30;;;3.39;64.10;94387.53;5044978;28;20746;-82
2021/01/02 10:26:21;;;;;;;31.00;12.65;;;4.10;80.20;;;3.45;63.88;94383.50;5065856;28;20686;-80
2021/01/02 10:28:48;;;;;;;30.55;11.70;;;4.20;80.30;;;3.47;64.42;94390.13;5045792;28;20234;-81
2021/01/02 10:31:22;;;;;;;28.48;12.23;;;4.20;80.30;;;3.52;64.02;94393.06;5060766;28;20197;-81
2021/01/02 10:33:49;;;;;;;30.48;11.88;;;4.30;80.40;;;3.59;63.95;94393.22;5047560;28;20205;-80
2021/01/02 10:36:17;;;;;;;29.35;13.07;;;4.30;80.40;;;3.63;64.10;94391.94;5061160;28;20223;-79
2021/01/02 10:38:43;;;;;;;31.48;16.30;;;4.30;80.40;;;3.66;63.89;94383.84;5064780;28;20715;-81
2021/01/02 10:41:16;;;;;;;32.78;14.95;;;4.40;80.40;;;3.70;64.07;94389.50;5051319;28;20318;-80
2021/01/02 10:43:43;;;;;;;33.80;12.75;;;4.40;80.40;;;3.69;64.05;94387.88;5050984;28;20208;-81
2021/01/02 10:46:10;;;;;;;24.65;11.90;;;4.40;80.40;;;3.74;63.86;94387.41;5051883;28;20700;-81